sensor_id;sensor_type;location;lat;lon;timestamp;P1;durP1;ratioP1;P2;durP2;ratioP2
65368;SDS011;51970;53.484;49.488;2023-02-18T00:00:18;20.88;;;8.85;;
65368;SDS011;51970;53.484;49.488;2023-02-18T00:02:46;13.20;;;5.82;;
65368;SDS011;51970;53.484;49.488;2023-02-18T00:05:12;22.75;;;13.00;;
65368;SDS011;51970;53.484;49.488;2023-02-18T00:07:39;10.57;;;4.07;;
65368;SDS011;51970;53.484;49.488;2023-02-18T00:10:08;13.32;;;6.07;;
65368;SDS011;51970;53.484;49.488;2023-02-18T00:12:39;17.38;;;9.15;;
65368;SDS011;51970;53.484;49.488;2023-02-18T00:15:05;14.25;;;7.10;;
65368;SDS011;51970;53.484;49.488;2023-02-18T00:17:32;15.13;;;6.78;;
65368;SDS011;51970;53.484;49.488;2023-02-18T00:19:58;12.50;;;6.75;;
65368;SDS011;51970;53.484;49.488;2023-02-18T00:22:24;10.77;;;6.18;;
65368;SDS011;51970;53.484;49.488;2023-02-18T00:24:50;21.30;;;7.75;;
65368;SDS011;51970;53.484;49.488;2023-02-18T00:27:17;17.35;;;7.38;;
65368;SDS011;51970;53.484;49.488;2023-02-18T00:29:43;19.23;;;8.43;;
65368;SDS011;51970;53.484;49.488;2023-02-18T00:32:09;10.25;;;4.75;;
65368;SDS011;51970;53.484;49.488;2023-02-18T00:34:35;18.55;;;8.30;;
65368;SDS011;51970;53.484;49.488;2023-02-18T00:37:01;10.95;;;5.50;;
65368;SDS011;51970;53.484;49.488;2023-02-18T00:39:28;21.75;;;6.45;;
65368;SDS011;51970;53.484;49.488;2023-02-18T00:41:54;16.00;;;7.60;;
65368;SDS011;51970;53.484;49.488;2023-02-18T00:44:20;15.40;;;6.88;;
65368;SDS011;51970;53.484;49.488;2023-02-18T00:46:46;15.73;;;6.68;;
65368;SDS011;51970;53.484;49.488;2023-02-18T00:49:14;17.45;;;7.72;;
65368;SDS011;51970;53.484;49.488;2023-02-18T00:51:41;12.73;;;6.53;;
65368;SDS011;51970;53.484;49.488;2023-02-18T00:54:07;11.98;;;5.18;;
65368;SDS011;51970;53.484;49.488;2023-02-18T00:56:33;11.90;;;5.55;;
65368;SDS011;51970;53.484;49.488;2023-02-18T00:59:00;20.35;;;8.02;;
65368;SDS011;51970;53.484;49.488;2023-02-18T01:01:26;12.57;;;6.18;;
65368;SDS011;51970;53.484;49.488;2023-02-18T01:03:53;13.35;;;6.53;;
65368;SDS011;51970;53.484;49.488;2023-02-18T01:06:19;13.15;;;6.35;;
65368;SDS011;51970;53.484;49.488;2023-02-18T01:08:46;22.52;;;9.85;;
65368;SDS011;51970;53.484;49.488;2023-02-18T01:11:13;19.63;;;7.35;;
65368;SDS011;51970;53.484;49.488;2023-02-18T01:13:39;16.25;;;6.03;;
65368;SDS011;51970;53.484;49.488;2023-02-18T01:16:06;14.55;;;6.00;;
65368;SDS011;51970;53.484;49.488;2023-02-18T01:18:33;12.25;;;5.15;;
65368;SDS011;51970;53.484;49.488;2023-02-18T01:20:59;18.67;;;7.50;;
65368;SDS011;51970;53.484;49.488;2023-02-18T01:23:25;15.73;;;6.47;;
65368;SDS011;51970;53.484;49.488;2023-02-18T01:25:52;17.52;;;8.65;;
65368;SDS011;51970;53.484;49.488;2023-02-18T01:28:18;14.80;;;6.85;;
65368;SDS011;51970;53.484;49.488;2023-02-18T01:30:45;20.65;;;13.13;;
65368;SDS011;51970;53.484;49.488;2023-02-18T01:33:12;12.98;;;6.88;;
65368;SDS011;51970;53.484;49.488;2023-02-18T01:35:38;12.57;;;6.07;;
65368;SDS011;51970;53.484;49.488;2023-02-18T01:38:05;14.10;;;6.70;;
65368;SDS011;51970;53.484;49.488;2023-02-18T01:40:32;21.27;;;9.70;;
65368;SDS011;51970;53.484;49.488;2023-02-18T01:42:59;14.23;;;6.47;;
65368;SDS011;51970;53.484;49.488;2023-02-18T01:50:56;18.45;;;6.90;;
65368;SDS011;51970;53.484;49.488;2023-02-18T01:53:28;20.35;;;7.80;;
65368;SDS011;51970;53.484;49.488;2023-02-18T01:56:28;14.98;;;8.07;;
65368;SDS011;51970;53.484;49.488;2023-02-18T01:58:59;16.48;;;8.27;;
65368;SDS011;51970;53.484;49.488;2023-02-18T02:01:30;17.70;;;8.32;;
65368;SDS011;51970;53.484;49.488;2023-02-18T02:03:57;12.02;;;5.80;;
65368;SDS011;51970;53.484;49.488;2023-02-18T02:06:23;14.35;;;8.23;;
65368;SDS011;51970;53.484;49.488;2023-02-18T02:08:51;17.50;;;12.70;;
65368;SDS011;51970;53.484;49.488;2023-02-18T02:17:04;12.13;;;6.38;;
65368;SDS011;51970;53.484;49.488;2023-02-18T02:19:58;11.60;;;5.38;;
65368;SDS011;51970;53.484;49.488;2023-02-18T02:22:51;9.10;;;4.18;;
65368;SDS011;51970;53.484;49.488;2023-02-18T02:28:35;12.90;;;6.53;;
65368;SDS011;51970;53.484;49.488;2023-02-18T02:39:30;14.05;;;6.45;;
65368;SDS011;51970;53.484;49.488;2023-02-18T02:47:25;14.65;;;10.57;;
65368;SDS011;51970;53.484;49.488;2023-02-18T02:52:55;17.48;;;5.80;;
65368;SDS011;51970;53.484;49.488;2023-02-18T02:55:25;14.10;;;5.35;;
65368;SDS011;51970;53.484;49.488;2023-02-18T02:57:52;10.95;;;5.32;;
65368;SDS011;51970;53.484;49.488;2023-02-18T03:00:26;10.57;;;5.40;;
65368;SDS011;51970;53.484;49.488;2023-02-18T03:15:07;14.57;;;8.13;;
65368;SDS011;51970;53.484;49.488;2023-02-18T03:17:45;14.10;;;6.82;;
65368;SDS011;51970;53.484;49.488;2023-02-18T03:20:24;24.08;;;11.35;;
65368;SDS011;51970;53.484;49.488;2023-02-18T03:22:58;18.15;;;8.50;;
65368;SDS011;51970;53.484;49.488;2023-02-18T03:25:30;16.10;;;7.30;;
65368;SDS011;51970;53.484;49.488;2023-02-18T03:28:02;14.45;;;7.18;;
65368;SDS011;51970;53.484;49.488;2023-02-18T03:30:43;18.73;;;7.65;;
65368;SDS011;51970;53.484;49.488;2023-02-18T03:33:14;17.90;;;8.38;;
65368;SDS011;51970;53.484;49.488;2023-02-18T03:35:43;18.48;;;8.73;;
65368;SDS011;51970;53.484;49.488;2023-02-18T03:40:50;15.52;;;8.25;;
65368;SDS011;51970;53.484;49.488;2023-02-18T03:43:16;16.17;;;8.45;;
65368;SDS011;51970;53.484;49.488;2023-02-18T03:45:43;18.27;;;11.65;;
65368;SDS011;51970;53.484;49.488;2023-02-18T03:48:09;14.60;;;7.55;;
65368;SDS011;51970;53.484;49.488;2023-02-18T03:50:35;20.42;;;9.05;;
65368;SDS011;51970;53.484;49.488;2023-02-18T03:53:01;19.98;;;10.30;;
65368;SDS011;51970;53.484;49.488;2023-02-18T03:55:28;23.85;;;10.77;;
65368;SDS011;51970;53.484;49.488;2023-02-18T03:57:54;29.42;;;10.60;;
65368;SDS011;51970;53.484;49.488;2023-02-18T04:00:20;17.15;;;8.43;;
65368;SDS011;51970;53.484;49.488;2023-02-18T04:02:46;18.67;;;10.43;;
65368;SDS011;51970;53.484;49.488;2023-02-18T04:05:13;21.02;;;8.00;;
65368;SDS011;51970;53.484;49.488;2023-02-18T04:07:39;19.73;;;8.68;;
65368;SDS011;51970;53.484;49.488;2023-02-18T04:10:05;16.58;;;8.48;;
65368;SDS011;51970;53.484;49.488;2023-02-18T04:12:32;14.95;;;7.85;;
65368;SDS011;51970;53.484;49.488;2023-02-18T04:14:59;12.65;;;5.35;;
65368;SDS011;51970;53.484;49.488;2023-02-18T04:17:25;20.23;;;10.85;;
65368;SDS011;51970;53.484;49.488;2023-02-18T04:19:51;16.55;;;9.38;;
65368;SDS011;51970;53.484;49.488;2023-02-18T04:24:44;15.93;;;8.15;;
65368;SDS011;51970;53.484;49.488;2023-02-18T04:27:10;19.92;;;8.32;;
65368;SDS011;51970;53.484;49.488;2023-02-18T04:29:37;12.43;;;6.32;;
65368;SDS011;51970;53.484;49.488;2023-02-18T04:32:03;7.80;;;3.72;;
65368;SDS011;51970;53.484;49.488;2023-02-18T04:34:29;17.48;;;7.28;;
65368;SDS011;51970;53.484;49.488;2023-02-18T04:36:55;27.48;;;9.85;;
65368;SDS011;51970;53.484;49.488;2023-02-18T04:39:22;19.83;;;8.70;;
65368;SDS011;51970;53.484;49.488;2023-02-18T04:41:49;21.70;;;10.27;;
65368;SDS011;51970;53.484;49.488;2023-02-18T04:44:15;16.23;;;8.55;;
65368;SDS011;51970;53.484;49.488;2023-02-18T04:46:41;19.63;;;9.68;;
65368;SDS011;51970;53.484;49.488;2023-02-18T04:49:07;15.68;;;6.97;;
65368;SDS011;51970;53.484;49.488;2023-02-18T04:51:33;18.10;;;9.75;;
65368;SDS011;51970;53.484;49.488;2023-02-18T04:53:59;27.75;;;9.57;;
65368;SDS011;51970;53.484;49.488;2023-02-18T04:56:25;21.42;;;11.00;;
65368;SDS011;51970;53.484;49.488;2023-02-18T04:58:51;24.08;;;9.25;;
65368;SDS011;51970;53.484;49.488;2023-02-18T05:01:17;22.17;;;10.43;;
65368;SDS011;51970;53.484;49.488;2023-02-18T05:03:44;18.02;;;8.15;;
65368;SDS011;51970;53.484;49.488;2023-02-18T05:06:12;21.40;;;13.02;;
65368;SDS011;51970;53.484;49.488;2023-02-18T05:08:41;15.82;;;8.30;;
65368;SDS011;51970;53.484;49.488;2023-02-18T05:11:07;14.70;;;7.15;;
65368;SDS011;51970;53.484;49.488;2023-02-18T05:13:34;17.92;;;8.70;;
65368;SDS011;51970;53.484;49.488;2023-02-18T05:16:00;15.07;;;8.40;;
65368;SDS011;51970;53.484;49.488;2023-02-18T05:18:29;16.48;;;7.43;;
65368;SDS011;51970;53.484;49.488;2023-02-18T05:20:55;17.30;;;9.15;;
65368;SDS011;51970;53.484;49.488;2023-02-18T05:23:21;21.30;;;10.10;;
65368;SDS011;51970;53.484;49.488;2023-02-18T05:25:49;16.00;;;7.85;;
65368;SDS011;51970;53.484;49.488;2023-02-18T05:28:15;25.83;;;10.20;;
65368;SDS011;51970;53.484;49.488;2023-02-18T05:30:42;19.35;;;8.38;;
65368;SDS011;51970;53.484;49.488;2023-02-18T05:33:09;18.70;;;7.78;;
65368;SDS011;51970;53.484;49.488;2023-02-18T05:35:35;15.95;;;7.82;;
65368;SDS011;51970;53.484;49.488;2023-02-18T05:38:01;21.75;;;9.70;;
65368;SDS011;51970;53.484;49.488;2023-02-18T05:40:30;15.82;;;6.50;;
65368;SDS011;51970;53.484;49.488;2023-02-18T05:42:57;14.85;;;6.57;;
65368;SDS011;51970;53.484;49.488;2023-02-18T05:45:23;29.80;;;8.45;;
65368;SDS011;51970;53.484;49.488;2023-02-18T05:47:49;20.17;;;9.02;;
65368;SDS011;51970;53.484;49.488;2023-02-18T05:50:15;14.50;;;8.25;;
65368;SDS011;51970;53.484;49.488;2023-02-18T05:52:42;16.73;;;8.70;;
65368;SDS011;51970;53.484;49.488;2023-02-18T05:55:08;19.40;;;8.32;;
65368;SDS011;51970;53.484;49.488;2023-02-18T05:57:40;16.50;;;8.18;;
65368;SDS011;51970;53.484;49.488;2023-02-18T06:00:06;10.25;;;4.93;;
65368;SDS011;51970;53.484;49.488;2023-02-18T06:02:36;22.52;;;8.73;;
65368;SDS011;51970;53.484;49.488;2023-02-18T06:05:03;19.40;;;8.90;;
65368;SDS011;51970;53.484;49.488;2023-02-18T06:07:30;20.30;;;8.20;;
65368;SDS011;51970;53.484;49.488;2023-02-18T06:09:56;19.65;;;7.53;;
65368;SDS011;51970;53.484;49.488;2023-02-18T06:12:22;24.05;;;10.00;;
65368;SDS011;51970;53.484;49.488;2023-02-18T06:14:49;14.65;;;7.20;;
65368;SDS011;51970;53.484;49.488;2023-02-18T06:17:15;20.70;;;10.00;;
65368;SDS011;51970;53.484;49.488;2023-02-18T06:19:47;19.55;;;8.20;;
65368;SDS011;51970;53.484;49.488;2023-02-18T06:22:14;16.35;;;7.63;;
65368;SDS011;51970;53.484;49.488;2023-02-18T06:24:40;15.98;;;8.30;;
65368;SDS011;51970;53.484;49.488;2023-02-18T06:27:08;19.77;;;8.93;;
65368;SDS011;51970;53.484;49.488;2023-02-18T06:29:34;16.45;;;8.40;;
65368;SDS011;51970;53.484;49.488;2023-02-18T06:32:03;20.75;;;8.88;;
65368;SDS011;51970;53.484;49.488;2023-02-18T06:34:29;18.13;;;9.30;;
65368;SDS011;51970;53.484;49.488;2023-02-18T06:36:56;19.98;;;9.20;;
65368;SDS011;51970;53.484;49.488;2023-02-18T06:39:22;17.50;;;8.65;;
65368;SDS011;51970;53.484;49.488;2023-02-18T06:41:48;18.67;;;7.70;;
65368;SDS011;51970;53.484;49.488;2023-02-18T06:44:14;14.85;;;6.25;;
65368;SDS011;51970;53.484;49.488;2023-02-18T06:46:43;17.38;;;9.13;;
65368;SDS011;51970;53.484;49.488;2023-02-18T06:49:12;14.63;;;7.22;;
65368;SDS011;51970;53.484;49.488;2023-02-18T06:51:43;18.75;;;10.02;;
65368;SDS011;51970;53.484;49.488;2023-02-18T06:54:09;16.77;;;7.47;;
65368;SDS011;51970;53.484;49.488;2023-02-18T06:56:39;18.38;;;8.70;;
65368;SDS011;51970;53.484;49.488;2023-02-18T06:59:05;11.25;;;5.55;;
65368;SDS011;51970;53.484;49.488;2023-02-18T07:01:32;16.70;;;7.15;;
65368;SDS011;51970;53.484;49.488;2023-02-18T07:04:01;17.92;;;7.88;;
65368;SDS011;51970;53.484;49.488;2023-02-18T07:06:27;10.07;;;3.80;;
65368;SDS011;51970;53.484;49.488;2023-02-18T07:08:54;11.48;;;5.78;;
65368;SDS011;51970;53.484;49.488;2023-02-18T07:11:21;10.32;;;4.75;;
65368;SDS011;51970;53.484;49.488;2023-02-18T07:13:47;11.27;;;5.20;;
65368;SDS011;51970;53.484;49.488;2023-02-18T07:16:13;13.77;;;5.70;;
65368;SDS011;51970;53.484;49.488;2023-02-18T07:18:41;15.48;;;7.47;;
65368;SDS011;51970;53.484;49.488;2023-02-18T07:21:10;18.45;;;9.05;;
65368;SDS011;51970;53.484;49.488;2023-02-18T07:23:51;15.57;;;7.38;;
65368;SDS011;51970;53.484;49.488;2023-02-18T07:26:17;6.35;;;2.60;;
65368;SDS011;51970;53.484;49.488;2023-02-18T07:28:44;11.45;;;5.93;;
65368;SDS011;51970;53.484;49.488;2023-02-18T07:31:14;14.75;;;6.93;;
65368;SDS011;51970;53.484;49.488;2023-02-18T07:33:42;14.45;;;8.32;;
65368;SDS011;51970;53.484;49.488;2023-02-18T07:36:10;15.32;;;7.28;;
65368;SDS011;51970;53.484;49.488;2023-02-18T07:38:36;15.85;;;7.65;;
65368;SDS011;51970;53.484;49.488;2023-02-18T07:41:03;14.73;;;6.90;;
65368;SDS011;51970;53.484;49.488;2023-02-18T07:43:32;15.40;;;6.90;;
65368;SDS011;51970;53.484;49.488;2023-02-18T07:45:59;17.38;;;7.78;;
65368;SDS011;51970;53.484;49.488;2023-02-18T07:48:31;12.10;;;5.82;;
65368;SDS011;51970;53.484;49.488;2023-02-18T07:50:57;14.25;;;6.53;;
65368;SDS011;51970;53.484;49.488;2023-02-18T07:53:23;20.23;;;8.27;;
65368;SDS011;51970;53.484;49.488;2023-02-18T07:55:52;13.10;;;8.23;;
65368;SDS011;51970;53.484;49.488;2023-02-18T07:58:20;17.23;;;7.60;;
65368;SDS011;51970;53.484;49.488;2023-02-18T08:00:51;15.90;;;11.35;;
65368;SDS011;51970;53.484;49.488;2023-02-18T08:03:21;18.85;;;6.80;;
65368;SDS011;51970;53.484;49.488;2023-02-18T08:05:49;12.63;;;5.70;;
65368;SDS011;51970;53.484;49.488;2023-02-18T08:08:18;15.93;;;6.78;;
65368;SDS011;51970;53.484;49.488;2023-02-18T08:10:47;19.40;;;8.65;;
65368;SDS011;51970;53.484;49.488;2023-02-18T08:13:14;23.23;;;11.52;;
65368;SDS011;51970;53.484;49.488;2023-02-18T08:15:42;24.75;;;10.43;;
65368;SDS011;51970;53.484;49.488;2023-02-18T08:18:16;19.30;;;7.20;;
65368;SDS011;51970;53.484;49.488;2023-02-18T08:20:54;16.25;;;8.23;;
65368;SDS011;51970;53.484;49.488;2023-02-18T08:23:20;16.05;;;9.63;;
65368;SDS011;51970;53.484;49.488;2023-02-18T08:25:52;19.45;;;9.23;;
65368;SDS011;51970;53.484;49.488;2023-02-18T08:28:20;24.40;;;9.98;;
65368;SDS011;51970;53.484;49.488;2023-02-18T08:30:47;26.45;;;10.30;;
65368;SDS011;51970;53.484;49.488;2023-02-18T08:33:16;17.55;;;7.53;;
65368;SDS011;51970;53.484;49.488;2023-02-18T08:35:44;23.23;;;9.57;;
65368;SDS011;51970;53.484;49.488;2023-02-18T08:38:14;23.02;;;10.25;;
65368;SDS011;51970;53.484;49.488;2023-02-18T08:40:41;27.00;;;10.45;;
65368;SDS011;51970;53.484;49.488;2023-02-18T08:43:07;25.33;;;10.95;;
65368;SDS011;51970;53.484;49.488;2023-02-18T08:45:35;19.63;;;9.98;;
65368;SDS011;51970;53.484;49.488;2023-02-18T08:48:03;23.95;;;10.30;;
65368;SDS011;51970;53.484;49.488;2023-02-18T08:50:32;27.10;;;12.27;;
65368;SDS011;51970;53.484;49.488;2023-02-18T08:52:58;27.02;;;12.82;;
65368;SDS011;51970;53.484;49.488;2023-02-18T08:55:32;34.75;;;18.35;;
65368;SDS011;51970;53.484;49.488;2023-02-18T08:58:47;28.92;;;14.05;;
65368;SDS011;51970;53.484;49.488;2023-02-18T09:01:15;31.88;;;14.07;;
65368;SDS011;51970;53.484;49.488;2023-02-18T09:03:44;27.52;;;12.50;;
65368;SDS011;51970;53.484;49.488;2023-02-18T09:06:10;30.08;;;14.82;;
65368;SDS011;51970;53.484;49.488;2023-02-18T09:08:38;37.60;;;17.65;;
65368;SDS011;51970;53.484;49.488;2023-02-18T09:11:09;41.28;;;18.30;;
65368;SDS011;51970;53.484;49.488;2023-02-18T09:13:38;27.48;;;13.65;;
65368;SDS011;51970;53.484;49.488;2023-02-18T09:16:06;26.05;;;12.65;;
65368;SDS011;51970;53.484;49.488;2023-02-18T09:18:47;27.50;;;13.07;;
65368;SDS011;51970;53.484;49.488;2023-02-18T09:21:14;16.73;;;9.05;;
65368;SDS011;51970;53.484;49.488;2023-02-18T09:23:43;23.60;;;12.10;;
65368;SDS011;51970;53.484;49.488;2023-02-18T09:26:14;29.55;;;13.00;;
65368;SDS011;51970;53.484;49.488;2023-02-18T09:28:44;23.77;;;13.02;;
65368;SDS011;51970;53.484;49.488;2023-02-18T09:31:46;32.47;;;13.63;;
65368;SDS011;51970;53.484;49.488;2023-02-18T09:34:32;26.83;;;12.27;;
65368;SDS011;51970;53.484;49.488;2023-02-18T09:37:00;27.70;;;13.25;;
65368;SDS011;51970;53.484;49.488;2023-02-18T09:39:52;26.05;;;12.00;;
65368;SDS011;51970;53.484;49.488;2023-02-18T09:46:21;28.83;;;14.43;;
65368;SDS011;51970;53.484;49.488;2023-02-18T09:48:55;26.38;;;13.85;;
65368;SDS011;51970;53.484;49.488;2023-02-18T09:51:24;27.88;;;13.00;;
65368;SDS011;51970;53.484;49.488;2023-02-18T09:53:51;25.40;;;11.10;;
65368;SDS011;51970;53.484;49.488;2023-02-18T09:56:26;20.98;;;11.02;;
65368;SDS011;51970;53.484;49.488;2023-02-18T09:58:56;24.80;;;11.95;;
65368;SDS011;51970;53.484;49.488;2023-02-18T10:04:14;18.05;;;8.80;;
65368;SDS011;51970;53.484;49.488;2023-02-18T10:06:44;28.27;;;11.50;;
65368;SDS011;51970;53.484;49.488;2023-02-18T10:09:21;20.70;;;10.25;;
65368;SDS011;51970;53.484;49.488;2023-02-18T10:12:17;21.63;;;10.75;;
65368;SDS011;51970;53.484;49.488;2023-02-18T10:14:51;17.35;;;8.75;;
65368;SDS011;51970;53.484;49.488;2023-02-18T10:17:22;20.58;;;10.73;;
65368;SDS011;51970;53.484;49.488;2023-02-18T10:19:55;19.42;;;10.15;;
65368;SDS011;51970;53.484;49.488;2023-02-18T10:22:24;18.50;;;8.65;;
65368;SDS011;51970;53.484;49.488;2023-02-18T10:24:59;17.20;;;8.30;;
65368;SDS011;51970;53.484;49.488;2023-02-18T10:27:37;19.83;;;9.05;;
65368;SDS011;51970;53.484;49.488;2023-02-18T10:32:42;18.77;;;10.05;;
65368;SDS011;51970;53.484;49.488;2023-02-18T10:43:41;38.95;;;14.85;;
65368;SDS011;51970;53.484;49.488;2023-02-18T10:46:28;69.88;;;23.17;;
65368;SDS011;51970;53.484;49.488;2023-02-18T10:51:57;77.63;;;23.52;;
65368;SDS011;51970;53.484;49.488;2023-02-18T10:54:51;43.47;;;17.13;;
65368;SDS011;51970;53.484;49.488;2023-02-18T10:57:25;39.63;;;15.15;;
65368;SDS011;51970;53.484;49.488;2023-02-18T10:59:55;44.50;;;14.40;;
65368;SDS011;51970;53.484;49.488;2023-02-18T11:02:44;42.05;;;16.65;;
65368;SDS011;51970;53.484;49.488;2023-02-18T11:05:33;22.23;;;10.55;;
65368;SDS011;51970;53.484;49.488;2023-02-18T11:08:00;24.20;;;9.60;;
65368;SDS011;51970;53.484;49.488;2023-02-18T11:10:31;33.47;;;8.95;;
65368;SDS011;51970;53.484;49.488;2023-02-18T11:13:06;18.77;;;9.35;;
65368;SDS011;51970;53.484;49.488;2023-02-18T11:15:34;64.38;;;20.98;;
65368;SDS011;51970;53.484;49.488;2023-02-18T11:20:58;71.85;;;25.58;;
65368;SDS011;51970;53.484;49.488;2023-02-18T11:23:28;98.60;;;30.55;;
65368;SDS011;51970;53.484;49.488;2023-02-18T11:26:03;24.90;;;9.73;;
65368;SDS011;51970;53.484;49.488;2023-02-18T11:28:55;183.82;;;53.63;;
65368;SDS011;51970;53.484;49.488;2023-02-18T11:32:20;22.42;;;10.18;;
65368;SDS011;51970;53.484;49.488;2023-02-18T11:35:29;68.97;;;25.15;;
65368;SDS011;51970;53.484;49.488;2023-02-18T11:38:13;26.63;;;11.00;;
65368;SDS011;51970;53.484;49.488;2023-02-18T11:41:00;91.93;;;29.65;;
65368;SDS011;51970;53.484;49.488;2023-02-18T11:44:04;73.70;;;23.50;;
65368;SDS011;51970;53.484;49.488;2023-02-18T11:47:42;85.85;;;22.67;;
65368;SDS011;51970;53.484;49.488;2023-02-18T11:50:45;28.77;;;12.77;;
65368;SDS011;51970;53.484;49.488;2023-02-18T11:53:49;37.38;;;16.65;;
65368;SDS011;51970;53.484;49.488;2023-02-18T11:56:16;65.50;;;21.02;;
65368;SDS011;51970;53.484;49.488;2023-02-18T11:58:44;55.13;;;19.13;;
65368;SDS011;51970;53.484;49.488;2023-02-18T12:04:03;30.15;;;13.60;;
65368;SDS011;51970;53.484;49.488;2023-02-18T12:09:38;118.28;;;33.53;;
65368;SDS011;51970;53.484;49.488;2023-02-18T12:25:19;19.95;;;9.68;;
65368;SDS011;51970;53.484;49.488;2023-02-18T12:31:02;27.10;;;10.05;;
65368;SDS011;51970;53.484;49.488;2023-02-18T12:39:18;23.08;;;10.82;;
65368;SDS011;51970;53.484;49.488;2023-02-18T12:45:02;21.95;;;10.77;;
65368;SDS011;51970;53.484;49.488;2023-02-18T12:48:19;22.88;;;11.38;;
65368;SDS011;51970;53.484;49.488;2023-02-18T13:08:44;28.08;;;13.00;;
65368;SDS011;51970;53.484;49.488;2023-02-18T13:14:27;23.63;;;9.07;;
65368;SDS011;51970;53.484;49.488;2023-02-18T13:17:37;23.58;;;10.68;;
65368;SDS011;51970;53.484;49.488;2023-02-18T13:20:24;27.42;;;10.48;;
65368;SDS011;51970;53.484;49.488;2023-02-18T13:23:00;26.83;;;12.13;;
65368;SDS011;51970;53.484;49.488;2023-02-18T13:25:36;26.30;;;14.75;;
65368;SDS011;51970;53.484;49.488;2023-02-18T13:28:28;32.53;;;11.73;;
65368;SDS011;51970;53.484;49.488;2023-02-18T13:31:49;24.80;;;9.38;;
65368;SDS011;51970;53.484;49.488;2023-02-18T13:34:54;39.13;;;11.68;;
65368;SDS011;51970;53.484;49.488;2023-02-18T13:38:00;21.65;;;11.70;;
65368;SDS011;51970;53.484;49.488;2023-02-18T13:40:28;23.42;;;10.70;;
65368;SDS011;51970;53.484;49.488;2023-02-18T13:43:17;19.58;;;10.30;;
65368;SDS011;51970;53.484;49.488;2023-02-18T13:46:12;20.83;;;9.07;;
65368;SDS011;51970;53.484;49.488;2023-02-18T13:49:05;21.75;;;10.73;;
65368;SDS011;51970;53.484;49.488;2023-02-18T13:51:45;18.50;;;9.45;;
65368;SDS011;51970;53.484;49.488;2023-02-18T13:54:26;23.23;;;10.45;;
65368;SDS011;51970;53.484;49.488;2023-02-18T13:57:21;18.92;;;10.10;;
65368;SDS011;51970;53.484;49.488;2023-02-18T14:01:10;27.55;;;11.13;;
65368;SDS011;51970;53.484;49.488;2023-02-18T14:03:52;26.38;;;10.35;;
65368;SDS011;51970;53.484;49.488;2023-02-18T14:06:34;26.75;;;11.82;;
65368;SDS011;51970;53.484;49.488;2023-02-18T14:14:58;21.33;;;10.45;;
65368;SDS011;51970;53.484;49.488;2023-02-18T14:20:44;21.95;;;10.85;;
65368;SDS011;51970;53.484;49.488;2023-02-18T14:26:34;19.20;;;9.85;;
65368;SDS011;51970;53.484;49.488;2023-02-18T14:29:09;23.08;;;10.57;;
65368;SDS011;51970;53.484;49.488;2023-02-18T14:32:11;22.05;;;11.07;;
65368;SDS011;51970;53.484;49.488;2023-02-18T14:39:48;15.65;;;9.48;;
65368;SDS011;51970;53.484;49.488;2023-02-18T14:49:16;25.92;;;12.05;;
65368;SDS011;51970;53.484;49.488;2023-02-18T14:52:15;22.88;;;12.48;;
65368;SDS011;51970;53.484;49.488;2023-02-18T14:55:14;21.30;;;11.52;;
65368;SDS011;51970;53.484;49.488;2023-02-18T14:58:25;24.83;;;11.57;;
65368;SDS011;51970;53.484;49.488;2023-02-18T15:01:32;22.23;;;10.85;;
65368;SDS011;51970;53.484;49.488;2023-02-18T15:04:05;30.60;;;12.13;;
65368;SDS011;51970;53.484;49.488;2023-02-18T15:06:38;26.40;;;12.45;;
65368;SDS011;51970;53.484;49.488;2023-02-18T15:09:18;25.98;;;11.30;;
65368;SDS011;51970;53.484;49.488;2023-02-18T15:11:51;30.48;;;14.07;;
65368;SDS011;51970;53.484;49.488;2023-02-18T15:14:37;44.47;;;16.08;;
65368;SDS011;51970;53.484;49.488;2023-02-18T15:19:39;78.70;;;21.58;;
65368;SDS011;51970;53.484;49.488;2023-02-18T15:22:13;52.67;;;19.33;;
65368;SDS011;51970;53.484;49.488;2023-02-18T15:24:45;59.88;;;22.90;;
65368;SDS011;51970;53.484;49.488;2023-02-18T15:27:43;35.55;;;15.30;;
65368;SDS011;51970;53.484;49.488;2023-02-18T15:30:15;51.38;;;19.13;;
65368;SDS011;51970;53.484;49.488;2023-02-18T15:32:56;81.88;;;24.15;;
65368;SDS011;51970;53.484;49.488;2023-02-18T15:35:27;78.30;;;31.33;;
65368;SDS011;51970;53.484;49.488;2023-02-18T15:37:58;67.57;;;22.05;;
65368;SDS011;51970;53.484;49.488;2023-02-18T15:40:31;47.30;;;18.77;;
65368;SDS011;51970;53.484;49.488;2023-02-18T15:43:03;47.53;;;20.20;;
65368;SDS011;51970;53.484;49.488;2023-02-18T15:45:40;74.10;;;22.90;;
65368;SDS011;51970;53.484;49.488;2023-02-18T15:51:05;50.10;;;24.13;;
65368;SDS011;51970;53.484;49.488;2023-02-18T15:53:37;86.07;;;37.78;;
65368;SDS011;51970;53.484;49.488;2023-02-18T15:56:07;73.78;;;37.50;;
65368;SDS011;51970;53.484;49.488;2023-02-18T15:58:35;85.47;;;38.03;;
65368;SDS011;51970;53.484;49.488;2023-02-18T16:01:22;67.75;;;34.70;;
65368;SDS011;51970;53.484;49.488;2023-02-18T16:04:05;100.75;;;43.05;;
65368;SDS011;51970;53.484;49.488;2023-02-18T16:07:02;142.32;;;51.55;;
65368;SDS011;51970;53.484;49.488;2023-02-18T16:12:39;73.50;;;35.55;;
65368;SDS011;51970;53.484;49.488;2023-02-18T16:15:24;92.47;;;40.90;;
65368;SDS011;51970;53.484;49.488;2023-02-18T16:17:58;93.75;;;39.95;;
65368;SDS011;51970;53.484;49.488;2023-02-18T16:23:51;102.53;;;45.40;;
65368;SDS011;51970;53.484;49.488;2023-02-18T16:27:03;76.97;;;41.65;;
65368;SDS011;51970;53.484;49.488;2023-02-18T16:29:40;75.75;;;34.33;;
65368;SDS011;51970;53.484;49.488;2023-02-18T16:32:15;84.55;;;36.17;;
65368;SDS011;51970;53.484;49.488;2023-02-18T16:35:14;75.28;;;33.13;;
65368;SDS011;51970;53.484;49.488;2023-02-18T16:37:41;66.50;;;33.67;;
65368;SDS011;51970;53.484;49.488;2023-02-18T16:43:13;162.35;;;52.40;;
65368;SDS011;51970;53.484;49.488;2023-02-18T16:45:43;156.50;;;45.80;;
65368;SDS011;51970;53.484;49.488;2023-02-18T16:48:48;108.53;;;43.65;;
65368;SDS011;51970;53.484;49.488;2023-02-18T16:51:20;73.20;;;34.92;;
65368;SDS011;51970;53.484;49.488;2023-02-18T16:54:11;222.25;;;67.43;;
65368;SDS011;51970;53.484;49.488;2023-02-18T16:56:42;152.82;;;46.50;;
65368;SDS011;51970;53.484;49.488;2023-02-18T16:59:13;77.20;;;37.92;;
65368;SDS011;51970;53.484;49.488;2023-02-18T17:02:00;68.38;;;36.13;;
65368;SDS011;51970;53.484;49.488;2023-02-18T17:04:28;88.57;;;43.55;;
65368;SDS011;51970;53.484;49.488;2023-02-18T17:06:59;180.57;;;64.78;;
65368;SDS011;51970;53.484;49.488;2023-02-18T17:09:34;113.25;;;40.13;;
65368;SDS011;51970;53.484;49.488;2023-02-18T17:12:08;52.40;;;24.65;;
65368;SDS011;51970;53.484;49.488;2023-02-18T17:14:35;56.67;;;26.10;;
65368;SDS011;51970;53.484;49.488;2023-02-18T17:17:04;50.13;;;23.45;;
65368;SDS011;51970;53.484;49.488;2023-02-18T17:19:38;57.72;;;25.85;;
65368;SDS011;51970;53.484;49.488;2023-02-18T17:24:31;35.45;;;17.75;;
65368;SDS011;51970;53.484;49.488;2023-02-18T17:26:58;41.30;;;18.70;;
65368;SDS011;51970;53.484;49.488;2023-02-18T17:29:26;35.92;;;18.25;;
65368;SDS011;51970;53.484;49.488;2023-02-18T17:31:55;36.60;;;17.73;;
65368;SDS011;51970;53.484;49.488;2023-02-18T17:34:26;33.78;;;16.60;;
65368;SDS011;51970;53.484;49.488;2023-02-18T17:36:59;31.50;;;16.38;;